createdAt,value
2018-02-14T00:00:33.395Z,4.60
2018-02-14T00:03:01.483Z,4.40
2018-02-14T00:05:29.593Z,4.40
2018-02-14T00:07:58.458Z,4.43
2018-02-14T00:10:26.554Z,4.13
2018-02-14T00:12:55.431Z,5.00
2018-02-14T00:15:23.520Z,4.63
2018-02-14T00:17:52.396Z,4.53
2018-02-14T00:20:21.266Z,4.20
2018-02-14T00:22:49.387Z,4.87
2018-02-14T00:25:17.468Z,4.30
2018-02-14T00:27:45.586Z,4.30
2018-02-14T00:30:13.669Z,5.03
2018-02-14T00:32:41.743Z,5.30
2018-02-14T00:35:09.863Z,4.80
2018-02-14T00:37:39.043Z,5.03
2018-02-14T00:40:07.129Z,5.40
2018-02-14T00:42:35.205Z,5.03
2018-02-14T00:45:03.315Z,5.20
2018-02-14T00:47:31.420Z,4.83
2018-02-14T00:49:59.528Z,5.23
2018-02-14T00:52:27.636Z,5.30
2018-02-14T00:54:55.773Z,4.63
2018-02-14T00:57:23.876Z,5.43
2018-02-14T00:59:51.974Z,5.23
2018-02-14T01:02:20.940Z,5.57
2018-02-14T01:11:33.960Z,4.80
2018-02-14T01:14:02.091Z,5.67
2018-02-14T01:16:30.179Z,5.40
2018-02-14T01:18:58.312Z,4.73
2018-02-14T01:21:26.433Z,5.20
2018-02-14T01:23:55.339Z,5.07
2018-02-14T01:26:23.461Z,4.70
2018-02-14T01:28:51.753Z,5.33
2018-02-14T01:31:19.848Z,5.53
2018-02-14T01:33:48.731Z,6.07
2018-02-14T01:36:17.693Z,5.10
2018-02-14T01:38:45.790Z,6.80
2018-02-14T01:41:13.913Z,5.60
2018-02-14T01:43:42.021Z,5.87
2018-02-14T01:46:10.126Z,5.37
2018-02-14T01:48:38.253Z,6.20
2018-02-14T01:51:06.365Z,5.80
2018-02-14T01:53:35.248Z,5.37
2018-02-14T01:56:04.096Z,5.40
2018-02-14T01:58:32.193Z,5.50
2018-02-14T02:01:00.318Z,5.43
2018-02-14T02:03:28.420Z,5.70
2018-02-14T02:05:56.534Z,5.97
2018-02-14T02:08:24.665Z,6.43
2018-02-14T02:10:52.746Z,5.90
2018-02-14T02:13:20.844Z,6.00
2018-02-14T02:15:49.705Z,5.80
2018-02-14T02:18:17.804Z,5.70
2018-02-14T02:20:45.895Z,6.10
2018-02-14T02:23:14.767Z,6.80
2018-02-14T02:25:43.647Z,6.27
2018-02-14T02:28:11.758Z,5.90
2018-02-14T02:30:40.630Z,6.17
2018-02-14T02:33:09.546Z,6.87
2018-02-14T02:35:37.649Z,6.10
2018-02-14T02:38:05.753Z,6.00
2018-02-14T02:40:33.928Z,6.20
2018-02-14T02:43:02.081Z,6.17
2018-02-14T02:45:30.176Z,6.03
2018-02-14T02:47:58.287Z,6.57
2018-02-14T02:50:26.379Z,6.83
2018-02-14T02:52:54.786Z,6.17
2018-02-14T02:55:22.895Z,6.23
2018-02-14T02:57:51.032Z,6.17
2018-02-14T03:00:19.129Z,6.80
2018-02-14T03:02:47.219Z,6.93
2018-02-14T03:05:15.323Z,6.50
2018-02-14T03:07:43.427Z,6.90
2018-02-14T03:10:11.521Z,6.90
2018-02-14T03:12:39.628Z,6.50
2018-02-14T03:15:07.754Z,6.93
2018-02-14T03:17:36.596Z,7.50
2018-02-14T03:20:04.721Z,6.70
2018-02-14T03:22:33.566Z,7.00
2018-02-14T03:25:01.692Z,6.53
2018-02-14T03:27:30.553Z,7.00
2018-02-14T03:29:58.640Z,6.57
2018-02-14T03:32:26.745Z,7.07
2018-02-14T03:34:54.880Z,6.60
2018-02-14T03:37:22.984Z,6.13
2018-02-14T03:39:51.081Z,7.40
2018-02-14T03:42:19.202Z,6.50
2018-02-14T03:44:47.298Z,6.70
2018-02-14T03:47:17.069Z,6.80
2018-02-14T03:49:45.170Z,6.87
2018-02-14T03:52:13.247Z,7.23
2018-02-14T03:54:41.355Z,6.80
2018-02-14T03:57:09.456Z,6.50
2018-02-14T03:59:37.571Z,5.90
2018-02-14T04:02:07.475Z,6.77
2018-02-14T04:04:36.349Z,7.30
2018-02-14T04:07:04.437Z,7.67
2018-02-14T04:09:33.287Z,6.70
2018-02-14T04:12:01.391Z,7.17
2018-02-14T04:14:29.491Z,6.80
2018-02-14T04:16:57.592Z,6.87
2018-02-14T04:19:25.704Z,6.70
2018-02-14T04:21:53.809Z,6.97
2018-02-14T04:24:21.920Z,6.50
2018-02-14T04:26:50.032Z,7.23
2018-02-14T04:29:18.908Z,6.33
2018-02-14T04:31:46.999Z,7.30
2018-02-14T04:34:15.857Z,6.47
2018-02-14T04:36:43.969Z,6.77
2018-02-14T04:39:12.083Z,9.00
2018-02-14T04:41:40.218Z,6.70
2018-02-14T04:44:08.327Z,6.87
2018-02-14T04:46:36.420Z,6.77
2018-02-14T04:49:04.531Z,7.43
2018-02-14T04:51:32.606Z,6.93
2018-02-14T04:54:00.688Z,7.67
2018-02-14T04:56:28.811Z,7.80
2018-02-14T04:58:56.945Z,6.80
2018-02-14T05:01:25.056Z,7.27
2018-02-14T05:03:53.150Z,6.90
2018-02-14T05:06:21.259Z,7.13
2018-02-14T05:08:49.417Z,7.23
2018-02-14T05:11:18.289Z,7.97
2018-02-14T05:13:47.163Z,8.07
2018-02-14T05:16:16.280Z,8.20
2018-02-14T05:18:45.153Z,7.57
2018-02-14T05:21:16.517Z,7.10
2018-02-14T05:23:45.396Z,7.73
2018-02-14T05:26:13.525Z,8.70
2018-02-14T05:28:42.355Z,7.23
2018-02-14T05:31:10.443Z,7.47
2018-02-14T05:33:39.301Z,7.80
2018-02-14T05:36:07.403Z,8.37
2018-02-14T05:38:36.284Z,8.03
2018-02-14T05:41:05.299Z,7.77
2018-02-14T05:43:33.390Z,8.00
2018-02-14T05:46:01.504Z,8.80
2018-02-14T05:48:29.598Z,9.17
2018-02-14T05:50:57.716Z,7.80
2018-02-14T05:53:25.816Z,8.17
2018-02-14T05:55:53.924Z,7.97
2018-02-14T05:58:22.041Z,8.00
2018-02-14T06:00:50.568Z,8.97
2018-02-14T06:03:18.663Z,8.20
2018-02-14T06:05:46.767Z,8.40
2018-02-14T06:08:14.884Z,8.77
2018-02-14T06:10:42.999Z,10.20
2018-02-14T06:13:11.113Z,9.80
2018-02-14T06:15:39.194Z,8.67
2018-02-14T06:18:08.316Z,9.30
2018-02-14T06:20:37.200Z,9.10
2018-02-14T06:23:06.060Z,10.17
2018-02-14T06:25:34.149Z,10.37
2018-02-14T06:28:02.270Z,8.43
2018-02-14T06:30:30.356Z,8.87
2018-02-14T06:32:58.445Z,12.60
2018-02-14T06:35:26.588Z,22.80
2018-02-14T06:37:54.683Z,11.40
2018-02-14T06:40:22.793Z,9.77
2018-02-14T06:42:51.942Z,11.50
2018-02-14T06:45:20.029Z,9.23
2018-02-14T06:47:48.123Z,10.77
2018-02-14T06:50:16.220Z,11.73
2018-02-14T06:52:44.354Z,11.20
2018-02-14T06:55:12.443Z,10.83
2018-02-14T06:57:40.577Z,11.20
2018-02-14T07:00:08.682Z,10.37
2018-02-14T07:02:37.711Z,15.20
2018-02-14T07:05:06.665Z,15.10
2018-02-14T07:07:34.921Z,12.57
2018-02-14T07:10:03.977Z,11.87
2018-02-14T07:12:32.075Z,9.73
2018-02-14T07:15:00.186Z,11.67
2018-02-14T07:17:28.307Z,9.83
2018-02-14T07:19:56.402Z,11.20
2018-02-14T07:22:24.514Z,10.70
2018-02-14T07:24:52.594Z,11.20
2018-02-14T07:27:21.459Z,11.33
2018-02-14T07:29:49.614Z,11.50
2018-02-14T07:32:17.708Z,10.40
2018-02-14T07:34:45.814Z,11.50
2018-02-14T07:37:14.682Z,12.27
2018-02-14T07:39:42.763Z,11.63
2018-02-14T07:42:10.877Z,12.37
2018-02-14T07:44:38.979Z,12.40
2018-02-14T07:47:08.500Z,11.87
2018-02-14T07:49:36.592Z,10.87
2018-02-14T07:52:05.440Z,11.47
2018-02-14T07:54:33.551Z,12.70
2018-02-14T07:57:02.399Z,11.30
2018-02-14T07:59:30.491Z,11.27
2018-02-14T08:01:58.995Z,11.30
2018-02-14T08:04:27.838Z,11.27
2018-02-14T08:06:55.928Z,11.20
2018-02-14T08:09:24.026Z,11.20
2018-02-14T08:11:52.887Z,11.13
2018-02-14T08:14:20.990Z,11.23
2018-02-14T08:16:49.106Z,12.47
2018-02-14T08:19:17.204Z,12.43
2018-02-14T08:21:45.322Z,11.20
2018-02-14T08:24:13.411Z,10.80
2018-02-14T08:26:41.540Z,11.03
2018-02-14T08:29:09.645Z,10.67
2018-02-14T08:31:38.495Z,11.47
2018-02-14T08:34:06.587Z,11.70
2018-02-14T08:36:34.688Z,11.33
2018-02-14T08:39:02.784Z,11.57
2018-02-14T08:41:30.884Z,11.80
2018-02-14T08:43:58.989Z,13.23
2018-02-14T08:46:27.075Z,11.13
2018-02-14T08:48:55.177Z,11.90
2018-02-14T08:51:23.281Z,11.57
2018-02-14T08:53:51.370Z,11.33
2018-02-14T08:56:20.223Z,11.53
2018-02-14T08:58:48.328Z,11.00
2018-02-14T09:01:16.452Z,13.60
2018-02-14T09:03:44.555Z,11.07
2018-02-14T09:06:12.632Z,11.73
2018-02-14T09:08:40.731Z,10.80
2018-02-14T09:11:08.819Z,12.53
2018-02-14T09:13:36.916Z,12.23
2018-02-14T09:16:04.994Z,11.67
2018-02-14T09:18:33.100Z,11.53
2018-02-14T09:21:01.192Z,10.87
2018-02-14T09:23:30.036Z,11.63
2018-02-14T09:25:58.149Z,11.33
2018-02-14T09:28:27.024Z,12.07
2018-02-14T09:30:55.130Z,11.50
2018-02-14T09:33:23.222Z,11.30
2018-02-14T09:35:51.322Z,12.77
2018-02-14T09:38:19.387Z,10.90
2018-02-14T09:40:47.501Z,11.00
2018-02-14T09:43:15.585Z,13.03
2018-02-14T09:45:43.667Z,11.20
2018-02-14T09:48:14.909Z,11.50
2018-02-14T09:50:43.004Z,11.87
2018-02-14T09:53:11.100Z,12.13
2018-02-14T09:55:39.200Z,10.80
2018-02-14T09:58:07.316Z,11.03
2018-02-14T10:00:35.391Z,13.00
2018-02-14T10:03:03.503Z,11.70
2018-02-14T10:05:31.593Z,12.87
2018-02-14T10:07:59.669Z,12.20
2018-02-14T10:10:28.531Z,11.67
2018-02-14T10:12:56.621Z,11.13
2018-02-14T10:15:24.730Z,11.67
2018-02-14T10:17:53.799Z,10.93
2018-02-14T10:20:22.664Z,11.67
2018-02-14T10:22:50.764Z,10.80
2018-02-14T10:25:19.628Z,10.73
2018-02-14T10:27:47.722Z,11.13
2018-02-14T10:30:16.599Z,11.63
2018-02-14T10:32:44.687Z,10.97
2018-02-14T10:35:13.544Z,11.03
2018-02-14T10:37:41.631Z,11.33
2018-02-14T10:40:09.735Z,9.43
2018-02-14T10:42:37.845Z,10.27
2018-02-14T10:45:05.934Z,10.70
2018-02-14T10:47:34.009Z,10.60
2018-02-14T10:50:02.129Z,10.17
2018-02-14T10:52:30.225Z,10.27
2018-02-14T10:54:58.363Z,9.87
2018-02-14T10:57:27.223Z,9.07
2018-02-14T10:59:55.333Z,10.43
2018-02-14T11:02:24.248Z,10.33
2018-02-14T11:04:58.572Z,8.90
2018-02-14T11:07:26.659Z,8.87
2018-02-14T11:09:54.764Z,8.83
2018-02-14T11:12:22.867Z,8.13
2018-02-14T11:14:50.985Z,8.13
2018-02-14T11:17:19.113Z,8.40
2018-02-14T11:19:47.200Z,9.17
2018-02-14T11:22:15.315Z,8.90
2018-02-14T11:24:43.433Z,9.37
2018-02-14T11:27:11.542Z,8.67
2018-02-14T11:29:40.552Z,8.37
2018-02-14T11:32:08.671Z,8.40
2018-02-14T11:34:36.793Z,8.43
2018-02-14T11:37:04.910Z,8.50
2018-02-14T11:39:33.074Z,7.87
2018-02-14T11:42:01.951Z,7.50
2018-02-14T11:44:30.055Z,7.57
2018-02-14T11:46:59.192Z,7.53
2018-02-14T11:49:27.373Z,8.27
2018-02-14T11:51:56.358Z,6.90
2018-02-14T11:54:25.332Z,7.27
2018-02-14T11:56:53.476Z,7.53
2018-02-14T11:59:23.599Z,7.40
2018-02-14T12:01:54.052Z,6.53
2018-02-14T12:04:22.252Z,7.03
2018-02-14T12:06:50.434Z,6.70
2018-02-14T12:09:18.621Z,6.90
2018-02-14T12:11:46.788Z,7.63
2018-02-14T12:14:14.905Z,6.13
2018-02-14T12:16:43.069Z,5.80
2018-02-14T12:19:11.215Z,5.97
2018-02-14T12:21:39.351Z,6.23
2018-02-14T12:24:08.520Z,6.07
2018-02-14T12:26:36.653Z,5.97
2018-02-14T12:29:04.759Z,6.20
2018-02-14T12:31:32.917Z,6.20
2018-02-14T12:34:01.074Z,6.33
2018-02-14T12:36:29.165Z,7.13
2018-02-14T12:38:57.289Z,6.07
2018-02-14T12:41:26.400Z,6.50
2018-02-14T12:43:54.563Z,6.13
2018-02-14T12:46:22.698Z,6.93
2018-02-14T12:48:50.838Z,5.70
2018-02-14T12:51:19.013Z,6.13
2018-02-14T12:53:47.170Z,6.40
2018-02-14T12:56:15.297Z,6.30
2018-02-14T12:58:43.436Z,5.80
2018-02-14T13:01:14.334Z,6.20
2018-02-14T13:03:43.572Z,6.07
2018-02-14T13:06:12.555Z,5.73
2018-02-14T13:08:40.667Z,5.60
2018-02-14T13:11:10.286Z,6.27
2018-02-14T13:13:38.434Z,7.00
2018-02-14T13:16:06.610Z,6.17
2018-02-14T13:18:36.612Z,5.90
2018-02-14T13:21:06.161Z,5.70
2018-02-14T13:23:34.277Z,6.23
2018-02-14T13:26:02.440Z,6.90
2018-02-14T13:28:33.594Z,6.10
2018-02-14T13:31:03.537Z,6.17
2018-02-14T13:33:33.333Z,5.77
2018-02-14T13:36:02.508Z,5.30
2018-02-14T13:38:34.671Z,5.93
2018-02-14T13:41:16.628Z,5.60
2018-02-14T13:43:47.646Z,6.00
2018-02-14T13:46:15.797Z,5.83
2018-02-14T13:48:43.975Z,5.50
2018-02-14T13:51:13.009Z,5.87
2018-02-14T13:53:42.323Z,5.40
2018-02-14T13:56:16.773Z,5.50
2018-02-14T13:58:44.956Z,6.83
2018-02-14T14:01:13.251Z,5.97
2018-02-14T14:03:41.428Z,5.83
2018-02-14T14:06:10.371Z,7.23
2018-02-14T14:08:38.564Z,6.40
2018-02-14T14:11:06.708Z,5.93
2018-02-14T14:13:34.857Z,6.53
2018-02-14T14:16:04.600Z,5.93
2018-02-14T14:18:32.730Z,6.00
2018-02-14T14:21:00.880Z,6.00
2018-02-14T14:23:28.998Z,5.83
2018-02-14T14:25:57.865Z,5.70
2018-02-14T14:28:26.008Z,5.80
2018-02-14T14:30:54.127Z,6.90
2018-02-14T14:33:22.243Z,6.23
2018-02-14T14:35:50.346Z,6.20
2018-02-14T14:38:18.486Z,5.73
2018-02-14T14:40:46.623Z,5.93
2018-02-14T14:43:14.736Z,6.03
2018-02-14T14:45:42.834Z,5.60
2018-02-14T14:48:10.948Z,6.30
2018-02-14T14:50:39.086Z,5.70
2018-02-14T14:53:07.198Z,5.77
2018-02-14T14:55:35.325Z,6.10
2018-02-14T14:58:03.454Z,6.13
2018-02-14T15:00:31.555Z,6.00
2018-02-14T15:02:59.653Z,5.83
2018-02-14T15:05:27.788Z,5.73
2018-02-14T15:07:55.865Z,5.77
2018-02-14T15:10:23.981Z,5.87
2018-02-14T15:12:52.872Z,5.10
2018-02-14T15:15:21.727Z,6.30
2018-02-14T15:17:49.824Z,5.57
2018-02-14T15:20:17.908Z,5.30
2018-02-14T15:22:46.768Z,5.00
2018-02-14T15:25:14.847Z,5.97
2018-02-14T15:27:42.963Z,4.67
2018-02-14T15:30:11.067Z,4.97
2018-02-14T15:32:39.165Z,4.47
2018-02-14T15:35:07.265Z,4.90
2018-02-14T15:37:35.344Z,5.00
2018-02-14T15:40:03.443Z,5.27
2018-02-14T15:42:31.545Z,4.57
2018-02-14T15:44:59.640Z,4.33
2018-02-14T15:47:27.732Z,4.40
2018-02-14T15:49:56.595Z,4.73
2018-02-14T15:52:24.674Z,4.40
2018-02-14T15:54:52.767Z,4.50
2018-02-14T15:57:21.620Z,4.30
2018-02-14T15:59:49.699Z,4.30
2018-02-14T16:02:17.791Z,4.37
2018-02-14T16:04:46.641Z,3.90
2018-02-14T16:07:14.736Z,4.70
2018-02-14T16:09:42.840Z,5.80
2018-02-14T16:12:11.696Z,4.50
2018-02-14T16:14:39.775Z,5.43
2018-02-14T16:17:07.876Z,5.33
2018-02-14T16:19:35.945Z,4.97
2018-02-14T16:22:04.837Z,5.97
2018-02-14T16:24:33.708Z,5.00
2018-02-14T16:27:02.580Z,5.07
2018-02-14T16:29:30.676Z,4.87
2018-02-14T16:31:59.515Z,4.17
2018-02-14T16:34:27.613Z,5.73
2018-02-14T16:36:55.719Z,5.20
2018-02-14T16:39:23.787Z,5.40
2018-02-14T16:41:52.649Z,5.07
2018-02-14T16:44:20.724Z,5.10
2018-02-14T16:46:48.802Z,5.50
2018-02-14T16:49:16.927Z,22.77
2018-02-14T16:51:45.029Z,5.60
2018-02-14T16:54:13.118Z,5.83
2018-02-14T16:56:41.197Z,5.00
2018-02-14T16:59:09.305Z,5.70
2018-02-14T17:01:37.393Z,5.40
2018-02-14T17:04:05.460Z,4.53
2018-02-14T17:06:33.567Z,4.90
2018-02-14T17:09:01.850Z,4.63
2018-02-14T17:11:29.961Z,5.50
2018-02-14T17:13:58.080Z,5.23
2018-02-14T17:16:26.178Z,4.70
2018-02-14T17:18:54.278Z,5.57
2018-02-14T17:21:23.229Z,5.33
2018-02-14T17:23:51.318Z,4.43
2018-02-14T17:26:22.962Z,10.00
2018-02-14T17:28:51.062Z,16.00
2018-02-14T17:31:19.940Z,6.53
2018-02-14T17:33:48.017Z,5.07
2018-02-14T17:36:17.096Z,5.90
2018-02-14T17:38:45.224Z,5.27
2018-02-14T17:41:13.340Z,5.97
2018-02-14T17:43:41.447Z,5.40
2018-02-14T17:46:09.548Z,5.50
2018-02-14T17:48:37.651Z,5.67
2018-02-14T17:51:05.744Z,5.60
2018-02-14T17:53:33.859Z,6.20
2018-02-14T17:56:01.936Z,12.47
2018-02-14T17:58:30.020Z,8.67
2018-02-14T18:00:58.127Z,5.70
2018-02-14T18:03:26.197Z,6.10
2018-02-14T18:05:54.334Z,7.20
2018-02-14T18:08:22.396Z,5.90
2018-02-14T18:10:50.492Z,6.27
2018-02-14T18:13:18.577Z,5.87
2018-02-14T18:15:46.716Z,6.40
2018-02-14T18:18:14.788Z,6.93
2018-02-14T18:20:42.887Z,6.57
2018-02-14T18:23:11.011Z,7.17
2018-02-14T18:25:39.190Z,6.90
2018-02-14T18:28:07.797Z,6.60
2018-02-14T18:30:36.122Z,7.00
2018-02-14T18:33:04.205Z,7.17
2018-02-14T18:35:32.278Z,6.97
2018-02-14T18:38:06.238Z,7.10
2018-02-14T18:40:34.437Z,6.53
2018-02-14T18:43:02.797Z,8.10
2018-02-14T18:45:30.928Z,6.50
2018-02-14T18:47:59.105Z,7.03
2018-02-14T18:50:27.388Z,6.63
2018-02-14T18:52:55.725Z,7.33
2018-02-14T18:55:23.916Z,8.03
2018-02-14T18:57:52.981Z,29.27
2018-02-14T19:00:21.100Z,9.63
2018-02-14T19:02:49.204Z,7.50
2018-02-14T19:05:17.306Z,8.37
2018-02-14T19:07:45.399Z,7.97
2018-02-14T19:10:15.546Z,8.77
2018-02-14T19:12:43.654Z,9.20
2018-02-14T19:15:11.733Z,8.27
2018-02-14T19:17:39.830Z,8.40
2018-02-14T19:20:07.938Z,9.07
2018-02-14T19:22:36.057Z,8.17
2018-02-14T19:25:04.166Z,9.47
2018-02-14T19:27:32.272Z,9.00
2018-02-14T19:30:00.608Z,13.60
2018-02-14T19:32:28.970Z,12.73
2018-02-14T19:34:58.001Z,10.20
2018-02-14T19:37:26.123Z,10.43
2018-02-14T19:39:54.246Z,14.30
2018-02-14T19:42:22.352Z,9.17
2018-02-14T19:44:50.447Z,10.57
2018-02-14T19:47:18.536Z,8.73
2018-02-14T19:49:46.637Z,10.73
2018-02-14T19:52:14.748Z,10.50
2018-02-14T19:54:42.885Z,10.03
2018-02-14T19:57:10.987Z,9.20
2018-02-14T19:59:39.074Z,10.47
2018-02-14T20:02:07.179Z,9.00
2018-02-14T20:04:35.260Z,9.73
2018-02-14T20:07:03.349Z,9.17
2018-02-14T20:09:31.633Z,9.40
2018-02-14T20:11:59.873Z,9.20
2018-02-14T20:14:28.747Z,8.70
2018-02-14T20:16:56.882Z,9.10
2018-02-14T20:19:24.984Z,9.37
2018-02-14T20:21:53.080Z,10.30
2018-02-14T20:24:22.021Z,9.27
2018-02-14T20:26:52.333Z,9.40
2018-02-14T20:29:23.740Z,10.00
2018-02-14T20:31:53.878Z,9.90
2018-02-14T20:34:22.068Z,10.33
2018-02-14T20:36:50.294Z,10.10
2018-02-14T20:39:21.886Z,11.33
2018-02-14T20:42:10.530Z,11.33
2018-02-14T20:47:40.008Z,10.90
2018-02-14T20:50:21.512Z,11.83
2018-02-14T20:52:59.931Z,10.67
2018-02-14T21:02:17.578Z,10.50
2018-02-14T21:04:46.780Z,12.13
2018-02-14T21:07:15.027Z,11.83
2018-02-14T21:09:45.025Z,10.93
2018-02-14T21:12:16.524Z,11.17
2018-02-14T21:15:00.357Z,10.70
2018-02-14T21:17:30.904Z,11.97
2018-02-14T21:20:01.157Z,11.37
2018-02-14T21:22:29.376Z,9.80
2018-02-14T21:24:57.543Z,12.43
2018-02-14T21:27:26.560Z,11.67
2018-02-14T21:29:57.459Z,11.67
2018-02-14T21:32:25.749Z,22.40
2018-02-14T21:34:54.687Z,14.37
2018-02-14T21:37:22.803Z,11.73
2018-02-14T21:39:50.943Z,12.17
2018-02-14T21:42:19.006Z,11.70
2018-02-14T21:44:47.110Z,13.20
2018-02-14T21:47:15.209Z,11.27
2018-02-14T21:49:43.328Z,12.33
2018-02-14T21:52:11.440Z,11.27
2018-02-14T21:54:39.574Z,11.37
2018-02-14T21:57:07.663Z,12.03
2018-02-14T21:59:35.763Z,12.23
2018-02-14T22:02:07.370Z,12.77
2018-02-14T22:04:35.537Z,12.00
2018-02-14T22:07:03.619Z,12.60
2018-02-14T22:09:32.497Z,14.63
2018-02-14T22:12:00.641Z,12.93
2018-02-14T22:14:28.745Z,13.70
2018-02-14T22:16:56.865Z,12.90
2018-02-14T22:19:24.962Z,11.90
2018-02-14T22:21:53.065Z,13.00
2018-02-14T22:24:21.197Z,13.53
2018-02-14T22:26:49.324Z,14.03
2018-02-14T22:29:17.455Z,12.63
2018-02-14T22:31:45.547Z,13.87
2018-02-14T22:34:13.662Z,12.73
2018-02-14T22:36:42.538Z,15.23
2018-02-14T22:39:11.428Z,14.33
2018-02-14T22:41:39.552Z,13.40
2018-02-14T22:44:07.672Z,14.80
2018-02-14T22:46:35.877Z,13.60
2018-02-14T22:49:03.974Z,14.53
2018-02-14T22:51:32.088Z,12.60
2018-02-14T22:54:00.195Z,13.43
2018-02-14T22:56:28.311Z,14.40
2018-02-14T22:58:56.391Z,14.37
2018-02-14T23:01:24.521Z,14.40
2018-02-14T23:03:52.637Z,13.13
2018-02-14T23:06:20.798Z,14.80
2018-02-14T23:08:48.859Z,14.00
2018-02-14T23:11:16.951Z,14.80
2018-02-14T23:13:45.075Z,13.00
2018-02-14T23:16:13.165Z,14.40
2018-02-14T23:18:41.280Z,14.93
2018-02-14T23:21:09.392Z,13.80
2018-02-14T23:23:37.505Z,13.57
2018-02-14T23:26:05.617Z,14.43
2018-02-14T23:28:33.704Z,14.77
2018-02-14T23:31:01.817Z,15.07
2018-02-14T23:33:29.908Z,14.23
2018-02-14T23:35:58.004Z,13.50
2018-02-14T23:38:26.876Z,13.80
2018-02-14T23:40:54.959Z,14.37
2018-02-14T23:43:23.061Z,12.70
2018-02-14T23:45:51.155Z,13.30
2018-02-14T23:48:19.264Z,14.53
2018-02-14T23:50:47.390Z,13.00
2018-02-14T23:53:15.479Z,13.53
2018-02-14T23:55:43.581Z,13.97
2018-02-14T23:58:13.188Z,14.23
